createdAt,value
2017-08-05T00:00:37.135Z,67.70
2017-08-05T00:03:05.273Z,67.60
2017-08-05T00:05:33.406Z,67.90
2017-08-05T00:08:01.578Z,67.40
2017-08-05T00:10:29.723Z,67.50
2017-08-05T00:12:58.087Z,67.90
2017-08-05T00:15:26.987Z,68.10
2017-08-05T00:17:55.114Z,68.10
2017-08-05T00:20:23.284Z,68.20
2017-08-05T00:22:51.422Z,68.10
2017-08-05T00:25:19.624Z,68.80
2017-08-05T00:27:47.775Z,68.70
2017-08-05T00:30:15.942Z,68.70
2017-08-05T00:32:44.065Z,68.60
2017-08-05T00:35:12.966Z,68.80
2017-08-05T00:37:41.892Z,69.80
2017-08-05T00:40:10.031Z,69.10
2017-08-05T00:42:38.196Z,69.00
2017-08-05T00:45:07.250Z,69.40
2017-08-05T00:47:35.415Z,69.30
2017-08-05T00:50:03.545Z,69.60
2017-08-05T00:52:31.714Z,69.30
2017-08-05T00:54:59.853Z,69.40
2017-08-05T00:57:27.987Z,69.50
2017-08-05T00:59:56.141Z,69.20
2017-08-05T01:02:24.276Z,68.90
2017-08-05T01:04:52.652Z,69.30
2017-08-05T01:07:20.777Z,69.60
2017-08-05T01:09:48.911Z,69.70
2017-08-05T01:12:17.067Z,69.70
2017-08-05T01:14:45.210Z,69.70
2017-08-05T01:17:13.383Z,70.00
2017-08-05T01:19:41.523Z,69.70
2017-08-05T01:22:09.705Z,69.70
2017-08-05T01:24:37.834Z,69.80
2017-08-05T01:27:06.744Z,70.00
2017-08-05T01:29:35.669Z,70.00
2017-08-05T01:32:03.788Z,69.90
2017-08-05T01:34:32.715Z,70.50
2017-08-05T01:37:00.848Z,70.50
2017-08-05T01:39:29.762Z,70.20
2017-08-05T01:41:57.941Z,70.20
2017-08-05T01:44:26.066Z,70.20
2017-08-05T01:46:54.230Z,70.00
2017-08-05T01:49:22.361Z,69.80
2017-08-05T01:51:50.500Z,70.20
2017-08-05T01:54:19.430Z,70.40
2017-08-05T01:56:47.564Z,70.40
2017-08-05T01:59:15.724Z,70.50
2017-08-05T02:01:44.620Z,70.70
2017-08-05T02:04:13.540Z,70.90
2017-08-05T02:06:41.663Z,70.90
2017-08-05T02:09:10.550Z,71.80
2017-08-05T02:11:38.711Z,71.20
2017-08-05T02:14:06.855Z,71.50
2017-08-05T02:16:35.030Z,71.50
2017-08-05T02:19:03.251Z,70.40
2017-08-05T02:21:32.169Z,68.20
2017-08-05T02:24:00.310Z,68.20
2017-08-05T02:26:29.241Z,68.30
2017-08-05T02:28:57.383Z,68.20
2017-08-05T02:31:25.555Z,67.20
2017-08-05T02:33:53.680Z,67.50
2017-08-05T02:36:21.797Z,67.50
2017-08-05T02:38:49.968Z,67.50
2017-08-05T02:41:18.090Z,64.70
2017-08-05T02:43:46.238Z,65.20
2017-08-05T02:46:14.358Z,66.40
2017-08-05T02:48:42.620Z,66.50
2017-08-05T02:51:10.749Z,66.60
2017-08-05T02:53:38.882Z,65.80
2017-08-05T02:56:07.821Z,66.70
2017-08-05T02:58:35.991Z,66.70
2017-08-05T03:01:04.153Z,67.20
2017-08-05T03:03:32.272Z,67.20
2017-08-05T03:06:00.433Z,67.90
2017-08-05T03:08:28.561Z,68.00
2017-08-05T03:10:56.694Z,67.20
2017-08-05T03:13:25.628Z,67.70
2017-08-05T03:15:53.752Z,66.80
2017-08-05T03:18:21.901Z,67.30
2017-08-05T03:20:50.043Z,68.40
2017-08-05T03:23:18.210Z,68.60
2017-08-05T03:25:46.343Z,68.70
2017-08-05T03:28:15.243Z,69.20
2017-08-05T03:30:44.173Z,69.30
2017-08-05T03:33:12.323Z,69.20
2017-08-05T03:35:40.473Z,67.90
2017-08-05T03:38:09.370Z,68.50
2017-08-05T03:40:37.538Z,68.50
2017-08-05T03:43:06.431Z,68.90
2017-08-05T03:45:34.557Z,68.90
2017-08-05T03:48:02.709Z,69.00
2017-08-05T03:50:30.851Z,70.30
2017-08-05T03:52:59.023Z,70.40
2017-08-05T03:55:27.145Z,69.40
2017-08-05T03:57:55.308Z,69.50
2017-08-05T04:00:23.447Z,69.90
2017-08-05T04:02:51.888Z,69.80
2017-08-05T04:05:20.794Z,70.30
2017-08-05T04:07:48.914Z,70.30
2017-08-05T04:10:17.087Z,71.00
2017-08-05T04:12:45.230Z,71.10
2017-08-05T04:15:13.396Z,71.40
2017-08-05T04:17:42.540Z,71.80
2017-08-05T04:20:10.713Z,72.00
2017-08-05T04:22:38.843Z,72.40
2017-08-05T04:25:06.987Z,72.30
2017-08-05T04:27:35.908Z,72.60
2017-08-05T04:30:04.025Z,72.60
2017-08-05T04:32:32.200Z,71.90
2017-08-05T04:35:00.319Z,72.40
2017-08-05T04:37:28.439Z,73.40
2017-08-05T04:39:56.612Z,73.70
2017-08-05T04:42:24.737Z,73.70
2017-08-05T04:44:52.885Z,73.20
2017-08-05T04:47:21.044Z,73.70
2017-08-05T04:49:49.981Z,72.80
2017-08-05T04:52:18.123Z,72.80
2017-08-05T04:54:46.281Z,73.80
2017-08-05T04:57:15.169Z,73.90
2017-08-05T04:59:44.084Z,73.60
2017-08-05T05:02:12.250Z,73.60
2017-08-05T05:04:40.379Z,72.90
2017-08-05T05:07:08.547Z,71.40
2017-08-05T05:09:36.728Z,71.50
2017-08-05T05:12:05.069Z,70.90
2017-08-05T05:14:33.199Z,70.20
2017-08-05T05:17:01.344Z,68.60
2017-08-05T05:19:29.516Z,68.30
2017-08-05T05:21:57.639Z,68.50
2017-08-05T05:24:25.923Z,68.40
2017-08-05T05:26:54.053Z,65.20
2017-08-05T05:29:22.950Z,65.10
2017-08-05T05:31:51.097Z,65.00
2017-08-05T05:34:19.983Z,66.80
2017-08-05T05:36:48.134Z,66.70
2017-08-05T05:39:16.266Z,65.80
2017-08-05T05:41:44.429Z,62.90
2017-08-05T05:44:12.560Z,62.90
2017-08-05T05:46:40.719Z,63.70
2017-08-05T05:49:08.845Z,61.30
2017-08-05T05:51:37.005Z,61.70
2017-08-05T05:54:05.131Z,60.80
2017-08-05T05:56:33.275Z,58.90
2017-08-05T05:59:01.437Z,59.10
2017-08-05T06:01:29.562Z,59.40
2017-08-05T06:03:57.742Z,60.30
2017-08-05T06:06:26.647Z,58.90
2017-08-05T06:08:54.800Z,58.50
2017-08-05T06:11:22.969Z,58.70
2017-08-05T06:13:51.110Z,56.90
2017-08-05T06:16:19.279Z,56.60
2017-08-05T06:18:47.637Z,57.20
2017-08-05T06:21:15.793Z,55.20
2017-08-05T06:23:43.946Z,56.10
2017-08-05T06:26:12.872Z,54.00
2017-08-05T06:28:40.995Z,54.00
2017-08-05T06:31:09.930Z,54.40
2017-08-05T06:33:38.054Z,54.40
2017-08-05T06:36:06.189Z,52.80
2017-08-05T06:38:34.346Z,53.90
2017-08-05T06:41:02.482Z,52.70
2017-08-05T06:43:30.644Z,55.10
2017-08-05T06:45:58.773Z,53.20
2017-08-05T06:48:26.951Z,52.10
2017-08-05T06:50:55.082Z,52.60
2017-08-05T06:53:23.211Z,52.40
2017-08-05T06:55:51.385Z,51.90
2017-08-05T06:58:19.518Z,51.60
2017-08-05T07:00:47.777Z,51.50
2017-08-05T07:03:16.787Z,52.20
2017-08-05T07:05:44.921Z,52.10
2017-08-05T07:08:13.855Z,51.20
2017-08-05T07:10:41.986Z,51.10
2017-08-05T07:13:10.274Z,52.70
2017-08-05T07:15:38.408Z,51.30
2017-08-05T07:18:06.534Z,51.70
2017-08-05T07:20:34.685Z,51.20
2017-08-05T07:23:02.827Z,51.40
2017-08-05T07:25:31.863Z,51.90
2017-08-05T07:27:59.987Z,51.80
2017-08-05T07:30:28.119Z,52.20
2017-08-05T07:32:56.275Z,52.10
2017-08-05T07:35:24.411Z,52.80
2017-08-05T07:37:52.584Z,51.90
2017-08-05T07:40:20.729Z,51.30
2017-08-05T07:42:48.894Z,50.70
2017-08-05T07:45:17.023Z,50.10
2017-08-05T07:47:45.146Z,49.50
2017-08-05T07:50:13.318Z,49.30
2017-08-05T07:52:41.440Z,50.30
2017-08-05T07:55:09.602Z,50.80
2017-08-05T07:57:37.733Z,50.00
2017-08-05T08:00:06.011Z,50.20
2017-08-05T08:02:34.134Z,50.10
2017-08-05T08:05:02.270Z,49.60
2017-08-05T08:07:31.214Z,50.50
2017-08-05T08:09:59.358Z,50.50
2017-08-05T08:12:27.631Z,50.20
2017-08-05T08:14:55.763Z,52.00
2017-08-05T08:17:23.914Z,51.40
2017-08-05T08:19:52.064Z,51.00
2017-08-05T08:22:20.192Z,51.00
2017-08-05T08:24:49.210Z,51.70
2017-08-05T08:27:17.351Z,51.60
2017-08-05T08:29:46.245Z,50.80
2017-08-05T08:32:15.174Z,51.60
2017-08-05T08:34:43.319Z,51.60
2017-08-05T08:37:11.481Z,50.10
2017-08-05T08:39:40.379Z,49.90
2017-08-05T08:42:08.492Z,49.90
2017-08-05T08:44:36.641Z,48.60
2017-08-05T08:47:04.783Z,47.80
2017-08-05T08:49:33.717Z,47.10
2017-08-05T08:52:01.845Z,47.10
2017-08-05T08:54:30.162Z,48.20
2017-08-05T08:56:58.293Z,48.70
2017-08-05T08:59:26.435Z,47.70
2017-08-05T09:01:54.607Z,46.30
2017-08-05T09:04:22.738Z,45.90
2017-08-05T09:06:50.893Z,47.20
2017-08-05T09:09:19.016Z,47.50
2017-08-05T09:11:47.164Z,45.70
2017-08-05T09:14:15.299Z,45.00
2017-08-05T09:16:43.421Z,44.50
2017-08-05T09:19:11.574Z,44.80
2017-08-05T09:21:39.715Z,46.60
2017-08-05T09:24:07.890Z,46.20
2017-08-05T09:26:36.015Z,45.70
2017-08-05T09:29:04.148Z,46.50
2017-08-05T09:31:32.323Z,44.50
2017-08-05T09:34:00.446Z,46.10
2017-08-05T09:36:28.628Z,46.70
2017-08-05T09:38:57.518Z,46.00
2017-08-05T09:41:26.418Z,44.50
2017-08-05T09:43:54.586Z,43.70
2017-08-05T09:46:22.718Z,45.30
2017-08-05T09:48:50.910Z,44.60
2017-08-05T09:51:19.818Z,45.70
2017-08-05T09:53:48.709Z,45.60
2017-08-05T09:56:16.858Z,45.60
2017-08-05T09:58:45.001Z,46.00
2017-08-05T10:01:13.183Z,46.20
2017-08-05T10:03:41.339Z,45.30
2017-08-05T10:06:09.501Z,45.90
2017-08-05T10:08:37.625Z,45.50
2017-08-05T10:11:06.546Z,45.30
2017-08-05T10:13:34.671Z,45.30
2017-08-05T10:16:02.930Z,45.20
2017-08-05T10:18:31.084Z,43.90
2017-08-05T10:20:59.243Z,44.80
2017-08-05T10:23:27.401Z,44.40
2017-08-05T10:25:55.537Z,45.20
2017-08-05T10:28:24.464Z,45.10
2017-08-05T10:30:52.597Z,45.40
2017-08-05T10:33:20.722Z,46.80
2017-08-05T10:35:48.881Z,45.90
2017-08-05T10:38:17.000Z,45.80
2017-08-05T10:40:45.263Z,46.40
2017-08-05T10:43:13.411Z,45.00
2017-08-05T10:45:41.557Z,45.00
2017-08-05T10:48:09.708Z,45.60
2017-08-05T10:50:38.627Z,46.40
2017-08-05T10:53:06.771Z,45.70
2017-08-05T10:55:35.689Z,45.70
2017-08-05T10:58:03.818Z,45.70
2017-08-05T11:00:32.103Z,44.30
2017-08-05T11:03:00.993Z,45.50
2017-08-05T11:05:29.878Z,46.70
2017-08-05T11:07:58.800Z,46.50
2017-08-05T11:10:26.932Z,46.40
2017-08-05T11:12:55.214Z,47.30
2017-08-05T11:15:23.352Z,47.40
2017-08-05T11:17:51.494Z,47.10
2017-08-05T11:20:19.657Z,47.90
2017-08-05T11:22:48.027Z,48.00
2017-08-05T11:25:16.199Z,48.40
2017-08-05T11:27:44.336Z,48.40
2017-08-05T11:30:12.512Z,48.20
2017-08-05T11:32:41.437Z,48.70
2017-08-05T11:35:09.561Z,48.60
2017-08-05T11:37:37.719Z,48.90
2017-08-05T11:40:05.854Z,49.60
2017-08-05T11:42:33.983Z,49.70
2017-08-05T11:45:02.130Z,49.90
2017-08-05T11:47:30.266Z,51.30
2017-08-05T11:49:58.430Z,52.20
2017-08-05T11:52:26.553Z,51.20
2017-08-05T11:54:54.673Z,51.50
2017-08-05T11:57:22.839Z,51.90
2017-08-05T11:59:50.971Z,50.40
2017-08-05T12:02:19.234Z,50.40
2017-08-05T12:04:47.357Z,51.20
2017-08-05T12:07:15.485Z,51.30
2017-08-05T12:09:43.634Z,51.90
2017-08-05T12:12:11.772Z,52.10
2017-08-05T12:14:39.950Z,52.60
2017-08-05T12:17:08.111Z,52.50
2017-08-05T12:19:36.229Z,53.60
2017-08-05T12:22:04.430Z,54.00
2017-08-05T12:24:33.317Z,52.80
2017-08-05T12:27:01.472Z,52.80
2017-08-05T12:29:29.597Z,53.50
2017-08-05T12:31:57.717Z,54.50
2017-08-05T12:34:25.878Z,54.30
2017-08-05T12:36:54.015Z,54.20
2017-08-05T12:39:22.270Z,54.70
2017-08-05T12:41:50.388Z,55.10
2017-08-05T12:44:18.505Z,55.70
2017-08-05T12:46:47.417Z,54.80
2017-08-05T12:49:15.566Z,54.80
2017-08-05T12:51:43.740Z,55.00
2017-08-05T12:54:12.636Z,56.50
2017-08-05T12:56:40.780Z,56.40
2017-08-05T12:59:09.749Z,56.70
2017-08-05T13:01:37.882Z,56.30
2017-08-05T13:04:06.145Z,55.90
2017-08-05T13:06:34.269Z,56.40
2017-08-05T13:09:02.398Z,56.80
2017-08-05T13:11:30.554Z,57.10
2017-08-05T13:13:58.687Z,56.40
2017-08-05T13:16:26.942Z,55.70
2017-08-05T13:18:55.066Z,56.30
2017-08-05T13:21:23.953Z,56.00
2017-08-05T13:23:52.119Z,56.00
2017-08-05T13:26:21.020Z,56.90
2017-08-05T13:28:49.277Z,56.20
2017-08-05T13:31:18.264Z,57.10
2017-08-05T13:33:47.187Z,56.20
2017-08-05T13:36:15.347Z,56.10
2017-08-05T13:38:43.465Z,56.10
2017-08-05T13:41:11.630Z,56.10
2017-08-05T13:43:39.771Z,56.30
2017-08-05T13:46:07.901Z,56.40
2017-08-05T13:48:36.049Z,55.70
2017-08-05T13:51:04.177Z,56.10
2017-08-05T13:53:32.436Z,56.30
2017-08-05T13:56:01.320Z,56.20
2017-08-05T13:58:29.444Z,56.10
2017-08-05T14:00:57.593Z,55.60
2017-08-05T14:03:25.727Z,56.60
2017-08-05T14:05:54.649Z,55.80
2017-08-05T14:08:22.774Z,55.80
2017-08-05T14:10:51.047Z,55.50
2017-08-05T14:13:19.184Z,55.50
2017-08-05T14:15:47.319Z,55.60
2017-08-05T14:18:16.243Z,56.30
2017-08-05T14:20:44.371Z,56.30
2017-08-05T14:23:13.297Z,55.70
2017-08-05T14:25:41.429Z,55.60
2017-08-05T14:28:09.559Z,55.60
2017-08-05T14:30:37.714Z,55.50
2017-08-05T14:33:05.835Z,56.00
2017-08-05T14:35:33.995Z,55.50
2017-08-05T14:38:02.124Z,56.40
2017-08-05T14:40:30.255Z,57.10
2017-08-05T14:42:59.174Z,56.40
2017-08-05T14:45:27.311Z,56.40
2017-08-05T14:47:56.240Z,56.90
2017-08-05T14:50:24.365Z,56.90
2017-08-05T14:52:52.481Z,57.70
2017-08-05T14:55:20.647Z,58.60
2017-08-05T14:57:48.779Z,58.40
2017-08-05T15:00:17.034Z,57.70
2017-08-05T15:02:45.179Z,56.90
2017-08-05T15:05:13.317Z,57.80
2017-08-05T15:07:41.477Z,58.30
2017-08-05T15:10:10.375Z,58.40
2017-08-05T15:12:39.285Z,58.80
2017-08-05T15:15:07.410Z,58.80
2017-08-05T15:17:35.582Z,57.90
2017-08-05T15:20:03.717Z,58.50
2017-08-05T15:22:31.848Z,58.40
2017-08-05T15:25:00.019Z,57.50
2017-08-05T15:27:28.902Z,57.40
2017-08-05T15:29:57.071Z,57.40
2017-08-05T15:32:25.956Z,58.20
2017-08-05T15:34:54.205Z,58.20
2017-08-05T15:37:22.321Z,58.50
2017-08-05T15:39:50.454Z,58.30
2017-08-05T15:42:18.615Z,57.90
2017-08-05T15:44:46.747Z,58.40
2017-08-05T15:47:14.897Z,58.60
2017-08-05T15:49:43.793Z,58.10
2017-08-05T15:52:11.975Z,58.10
2017-08-05T15:54:40.112Z,58.50
2017-08-05T15:57:08.251Z,59.10
2017-08-05T15:59:36.416Z,58.70
2017-08-05T16:02:04.556Z,59.20
2017-08-05T16:04:32.710Z,59.10
2017-08-05T16:07:01.598Z,59.00
2017-08-05T16:09:30.485Z,56.80
2017-08-05T16:11:58.646Z,56.80
2017-08-05T16:14:26.788Z,57.70
2017-08-05T16:16:54.938Z,58.50
2017-08-05T16:19:23.078Z,56.80
2017-08-05T16:21:52.000Z,58.20
2017-08-05T16:24:20.122Z,58.20
2017-08-05T16:26:48.300Z,58.80
2017-08-05T16:29:17.197Z,58.90
2017-08-05T16:31:45.332Z,58.10
2017-08-05T16:34:13.492Z,56.90
2017-08-05T16:36:41.694Z,57.00
2017-08-05T16:39:10.202Z,56.50
2017-08-05T16:41:39.098Z,54.70
2017-08-05T16:44:07.212Z,54.60
2017-08-05T16:46:35.358Z,54.10
2017-08-05T16:49:03.485Z,54.70
2017-08-05T16:51:32.417Z,54.70
2017-08-05T16:54:00.546Z,54.60
2017-08-05T16:56:29.444Z,56.10
2017-08-05T16:58:58.360Z,56.00
2017-08-05T17:01:26.495Z,56.00
2017-08-05T17:03:55.430Z,57.50
2017-08-05T17:06:23.554Z,56.60
2017-08-05T17:08:52.450Z,57.00
2017-08-05T17:11:21.374Z,57.90
2017-08-05T17:13:49.494Z,57.90
2017-08-05T17:16:17.655Z,58.10
2017-08-05T17:18:45.782Z,58.10
2017-08-05T17:21:13.901Z,58.70
2017-08-05T17:23:42.067Z,58.90
2017-08-05T17:26:10.185Z,60.00
2017-08-05T17:28:38.341Z,59.10
2017-08-05T17:31:07.242Z,60.40
2017-08-05T17:33:35.378Z,60.30
2017-08-05T17:36:03.534Z,58.40
2017-08-05T17:38:31.667Z,59.00
2017-08-05T17:40:59.834Z,60.20
2017-08-05T17:43:27.981Z,60.40
2017-08-05T17:45:56.866Z,60.20
2017-08-05T17:48:25.018Z,60.20
2017-08-05T17:50:53.158Z,60.30
2017-08-05T17:53:21.432Z,60.60
2017-08-05T17:55:49.571Z,60.30
2017-08-05T17:58:18.471Z,60.70
2017-08-05T18:00:46.625Z,60.70
2017-08-05T18:03:15.519Z,61.20
2017-08-05T18:05:44.458Z,60.80
2017-08-05T18:08:12.582Z,61.40
2017-08-05T18:10:41.470Z,60.90
2017-08-05T18:13:10.391Z,61.40
2017-08-05T18:15:38.516Z,61.40
2017-08-05T18:18:07.433Z,61.10
2017-08-05T18:20:35.567Z,61.60
2017-08-05T18:23:03.839Z,62.40
2017-08-05T18:25:31.962Z,62.40
2017-08-05T18:28:00.104Z,62.90
2017-08-05T18:30:28.270Z,63.30
2017-08-05T18:32:57.156Z,63.90
2017-08-05T18:35:26.193Z,63.90
2017-08-05T18:37:54.331Z,64.00
2017-08-05T18:40:22.463Z,64.40
2017-08-05T18:42:50.617Z,64.80
2017-08-05T18:45:18.780Z,65.10
2017-08-05T18:47:46.943Z,65.30
2017-08-05T18:50:15.087Z,65.70
2017-08-05T18:52:44.021Z,65.70
2017-08-05T18:55:12.158Z,65.70
2017-08-05T18:57:40.292Z,66.60
2017-08-05T19:00:08.460Z,66.70
2017-08-05T19:02:36.591Z,66.90
2017-08-05T19:05:04.745Z,67.10
2017-08-05T19:07:32.883Z,67.40
2017-08-05T19:10:01.046Z,67.70
2017-08-05T19:12:29.181Z,67.90
2017-08-05T19:14:57.510Z,67.70
2017-08-05T19:17:25.632Z,67.70
2017-08-05T19:19:53.757Z,67.40
2017-08-05T19:22:22.687Z,68.30
2017-08-05T19:24:51.555Z,68.20
2017-08-05T19:27:19.907Z,68.40
2017-08-05T19:29:48.807Z,68.50
2017-08-05T19:32:17.701Z,68.70
2017-08-05T19:34:45.867Z,68.70
2017-08-05T19:37:14.752Z,69.20
2017-08-05T19:39:43.711Z,69.50
2017-08-05T19:42:11.853Z,69.50
2017-08-05T19:44:39.990Z,69.50
2017-08-05T19:47:08.921Z,74.50
2017-08-05T19:49:37.055Z,74.50
2017-08-05T19:52:05.226Z,75.90
2017-08-05T19:54:34.118Z,78.70
2017-08-05T19:57:02.239Z,78.70
2017-08-05T19:59:30.401Z,79.50
2017-08-05T20:01:58.530Z,80.00
2017-08-05T20:04:26.699Z,80.60
2017-08-05T20:06:54.839Z,81.50
2017-08-05T20:09:22.993Z,81.80
2017-08-05T20:11:51.120Z,82.70
2017-08-05T20:14:19.311Z,83.20
2017-08-05T20:16:47.431Z,83.10
2017-08-05T20:19:16.378Z,84.40
2017-08-05T20:21:44.510Z,83.70
2017-08-05T20:24:13.406Z,85.80
2017-08-05T20:26:41.564Z,85.10
2017-08-05T20:29:10.549Z,85.70
2017-08-05T20:31:38.860Z,85.70
2017-08-05T20:34:06.988Z,86.10
2017-08-05T20:36:35.115Z,86.90
2017-08-05T20:39:03.299Z,87.00
2017-08-05T20:41:31.425Z,87.10
2017-08-05T20:44:00.359Z,87.60
2017-08-05T20:46:28.485Z,88.30
2017-08-05T20:48:57.403Z,87.60
2017-08-05T20:51:25.521Z,87.50
2017-08-05T20:53:53.651Z,87.60
2017-08-05T20:56:21.804Z,87.20
2017-08-05T20:58:49.925Z,86.50
2017-08-05T21:01:18.190Z,86.40
2017-08-05T21:03:46.306Z,86.20
2017-08-05T21:06:15.203Z,85.50
2017-08-05T21:08:43.451Z,85.50
2017-08-05T21:11:11.579Z,85.60
2017-08-05T21:13:39.733Z,85.30
2017-08-05T21:16:07.857Z,85.70
2017-08-05T21:18:36.019Z,85.50
2017-08-05T21:21:04.140Z,85.70
2017-08-05T21:23:32.308Z,86.30
2017-08-05T21:26:00.467Z,86.40
2017-08-05T21:28:28.593Z,86.20
2017-08-05T21:30:56.750Z,86.70
2017-08-05T21:33:24.887Z,86.30
2017-08-05T21:35:53.050Z,85.90
2017-08-05T21:38:21.941Z,85.90
2017-08-05T21:40:51.015Z,86.20
2017-08-05T21:43:20.115Z,86.20
2017-08-05T21:45:49.000Z,86.50
2017-08-05T21:48:17.935Z,87.00
2017-08-05T21:50:46.069Z,86.50
2017-08-05T21:53:15.014Z,86.80
2017-08-05T21:55:43.178Z,86.80
2017-08-05T21:58:11.323Z,86.70
2017-08-05T22:00:39.490Z,86.50
2017-08-05T22:03:07.623Z,86.50
2017-08-05T22:05:35.782Z,86.80
2017-08-05T22:08:03.907Z,86.50
2017-08-05T22:10:32.057Z,86.60
2017-08-05T22:13:00.960Z,86.70
2017-08-05T22:15:29.116Z,86.60
2017-08-05T22:17:58.015Z,86.40
2017-08-05T22:20:26.137Z,86.40
2017-08-05T22:22:54.295Z,86.50
2017-08-05T22:25:22.426Z,86.40
2017-08-05T22:27:51.506Z,86.60
2017-08-05T22:30:20.393Z,86.80
2017-08-05T22:32:48.522Z,86.80
2017-08-05T22:35:16.681Z,86.50
2017-08-05T22:37:44.798Z,86.20
2017-08-05T22:40:12.947Z,86.10
2017-08-05T22:42:41.066Z,86.20
2017-08-05T22:45:10.149Z,86.10
2017-08-05T22:47:39.113Z,86.10
2017-08-05T22:50:07.248Z,86.10
2017-08-05T22:52:35.402Z,86.00
2017-08-05T22:55:03.546Z,86.10
2017-08-05T22:57:32.479Z,86.30
2017-08-05T23:00:00.597Z,86.10
2017-08-05T23:02:28.769Z,85.90
2017-08-05T23:04:56.907Z,85.90
2017-08-05T23:07:25.073Z,86.00
2017-08-05T23:09:53.237Z,86.00
2017-08-05T23:12:21.370Z,85.90
2017-08-05T23:14:50.297Z,85.60
2017-08-05T23:17:18.431Z,85.60
2017-08-05T23:19:47.524Z,86.00
2017-08-05T23:22:16.423Z,86.00
2017-08-05T23:24:45.314Z,86.30
2017-08-05T23:27:13.480Z,86.30
2017-08-05T23:29:42.372Z,85.50
2017-08-05T23:32:11.288Z,84.50
2017-08-05T23:34:39.422Z,84.50
2017-08-05T23:37:08.359Z,85.20
2017-08-05T23:39:36.477Z,85.10
2017-08-05T23:42:04.594Z,85.80
2017-08-05T23:44:32.759Z,85.60
2017-08-05T23:47:00.996Z,85.80
2017-08-05T23:49:29.927Z,86.70
2017-08-05T23:51:58.057Z,87.20
2017-08-05T23:54:26.945Z,87.80
2017-08-05T23:56:55.874Z,88.20
2017-08-05T23:59:23.993Z,87.50
